sensor_id;sensor_type;location;lat;lon;timestamp;temperature;humidity
81140;SHT31;70624;51.978;5.656;2023-10-13T00:00:33;18.6;87.0
81140;SHT31;70624;51.978;5.656;2023-10-13T00:03:03;18.6;86.9
81140;SHT31;70624;51.978;5.656;2023-10-13T00:05:33;18.6;87.0
81140;SHT31;70624;51.978;5.656;2023-10-13T00:08:03;18.6;86.9
81140;SHT31;70624;51.978;5.656;2023-10-13T00:10:32;18.6;86.7
81140;SHT31;70624;51.978;5.656;2023-10-13T00:13:02;18.6;86.6
81140;SHT31;70624;51.978;5.656;2023-10-13T00:15:40;18.6;86.7
81140;SHT31;70624;51.978;5.656;2023-10-13T00:18:12;18.6;86.6
81140;SHT31;70624;51.978;5.656;2023-10-13T00:20:42;18.6;86.5
81140;SHT31;70624;51.978;5.656;2023-10-13T00:23:16;18.6;86.4
81140;SHT31;70624;51.978;5.656;2023-10-13T00:25:47;18.7;86.3
81140;SHT31;70624;51.978;5.656;2023-10-13T00:28:23;18.7;86.3
81140;SHT31;70624;51.978;5.656;2023-10-13T00:30:53;18.7;86.1
81140;SHT31;70624;51.978;5.656;2023-10-13T00:33:27;18.7;86.2
81140;SHT31;70624;51.978;5.656;2023-10-13T00:35:58;18.7;86.0
81140;SHT31;70624;51.978;5.656;2023-10-13T00:38:27;18.8;85.7
81140;SHT31;70624;51.978;5.656;2023-10-13T00:40:56;18.8;85.6
81140;SHT31;70624;51.978;5.656;2023-10-13T00:43:29;18.8;85.6
81140;SHT31;70624;51.978;5.656;2023-10-13T00:46:02;18.8;85.5
81140;SHT31;70624;51.978;5.656;2023-10-13T00:48:41;18.8;85.4
81140;SHT31;70624;51.978;5.656;2023-10-13T00:51:16;18.8;85.3
81140;SHT31;70624;51.978;5.656;2023-10-13T00:53:53;18.7;85.3
81140;SHT31;70624;51.978;5.656;2023-10-13T00:56:25;18.7;85.5
81140;SHT31;70624;51.978;5.656;2023-10-13T00:58:57;18.7;85.5
81140;SHT31;70624;51.978;5.656;2023-10-13T01:01:30;18.7;85.7
81140;SHT31;70624;51.978;5.656;2023-10-13T01:03:59;18.6;85.6
81140;SHT31;70624;51.978;5.656;2023-10-13T01:06:31;18.6;85.8
81140;SHT31;70624;51.978;5.656;2023-10-13T01:09:02;18.6;85.9
81140;SHT31;70624;51.978;5.656;2023-10-13T01:11:37;18.6;86.0
81140;SHT31;70624;51.978;5.656;2023-10-13T01:14:06;18.6;86.2
81140;SHT31;70624;51.978;5.656;2023-10-13T01:16:37;18.6;86.3
81140;SHT31;70624;51.978;5.656;2023-10-13T01:19:06;18.6;86.3
81140;SHT31;70624;51.978;5.656;2023-10-13T01:21:38;18.6;86.3
81140;SHT31;70624;51.978;5.656;2023-10-13T01:24:08;18.6;86.0
81140;SHT31;70624;51.978;5.656;2023-10-13T01:26:39;18.6;85.9
81140;SHT31;70624;51.978;5.656;2023-10-13T01:29:09;18.6;85.9
81140;SHT31;70624;51.978;5.656;2023-10-13T01:31:42;18.6;85.9
81140;SHT31;70624;51.978;5.656;2023-10-13T01:34:15;18.6;85.8
81140;SHT31;70624;51.978;5.656;2023-10-13T01:36:48;18.6;85.7
81140;SHT31;70624;51.978;5.656;2023-10-13T01:39:17;18.6;85.8
81140;SHT31;70624;51.978;5.656;2023-10-13T01:41:47;18.6;85.8
81140;SHT31;70624;51.978;5.656;2023-10-13T01:44:23;18.6;85.7
81140;SHT31;70624;51.978;5.656;2023-10-13T01:46:54;18.6;85.8
81140;SHT31;70624;51.978;5.656;2023-10-13T01:49:25;18.6;85.7
81140;SHT31;70624;51.978;5.656;2023-10-13T01:51:53;18.6;85.7
81140;SHT31;70624;51.978;5.656;2023-10-13T01:54:22;18.6;85.7
81140;SHT31;70624;51.978;5.656;2023-10-13T01:56:51;18.5;85.7
81140;SHT31;70624;51.978;5.656;2023-10-13T01:59:21;18.5;85.6
81140;SHT31;70624;51.978;5.656;2023-10-13T02:01:50;18.5;85.7
81140;SHT31;70624;51.978;5.656;2023-10-13T02:04:22;18.5;85.7
81140;SHT31;70624;51.978;5.656;2023-10-13T02:06:52;18.5;85.7
81140;SHT31;70624;51.978;5.656;2023-10-13T02:09:22;18.5;85.7
81140;SHT31;70624;51.978;5.656;2023-10-13T02:11:55;18.4;85.8
81140;SHT31;70624;51.978;5.656;2023-10-13T02:14:26;18.4;85.8
81140;SHT31;70624;51.978;5.656;2023-10-13T02:16:54;18.4;85.8
81140;SHT31;70624;51.978;5.656;2023-10-13T02:19:28;18.4;85.9
81140;SHT31;70624;51.978;5.656;2023-10-13T02:21:57;18.4;85.9
81140;SHT31;70624;51.978;5.656;2023-10-13T02:24:28;18.4;85.9
81140;SHT31;70624;51.978;5.656;2023-10-13T02:26:58;18.4;86.0
81140;SHT31;70624;51.978;5.656;2023-10-13T02:29:30;18.3;86.2
81140;SHT31;70624;51.978;5.656;2023-10-13T02:32:03;18.3;86.2
81140;SHT31;70624;51.978;5.656;2023-10-13T02:34:38;18.3;86.2
81140;SHT31;70624;51.978;5.656;2023-10-13T02:37:10;18.3;86.3
81140;SHT31;70624;51.978;5.656;2023-10-13T02:39:39;18.3;86.2
81140;SHT31;70624;51.978;5.656;2023-10-13T02:42:09;18.3;86.3
81140;SHT31;70624;51.978;5.656;2023-10-13T02:44:42;18.3;86.2
81140;SHT31;70624;51.978;5.656;2023-10-13T02:47:12;18.3;86.3
81140;SHT31;70624;51.978;5.656;2023-10-13T02:49:41;18.3;86.2
81140;SHT31;70624;51.978;5.656;2023-10-13T02:52:13;18.3;86.3
81140;SHT31;70624;51.978;5.656;2023-10-13T02:54:42;18.3;86.4
81140;SHT31;70624;51.978;5.656;2023-10-13T02:57:13;18.3;86.3
81140;SHT31;70624;51.978;5.656;2023-10-13T02:59:44;18.3;86.3
81140;SHT31;70624;51.978;5.656;2023-10-13T03:02:15;18.3;86.3
81140;SHT31;70624;51.978;5.656;2023-10-13T03:04:51;18.3;86.3
81140;SHT31;70624;51.978;5.656;2023-10-13T03:07:25;18.3;86.3
81140;SHT31;70624;51.978;5.656;2023-10-13T03:09:56;18.3;86.3
81140;SHT31;70624;51.978;5.656;2023-10-13T03:12:30;18.3;86.3
81140;SHT31;70624;51.978;5.656;2023-10-13T03:14:59;18.3;86.1
81140;SHT31;70624;51.978;5.656;2023-10-13T03:17:35;18.2;86.1
81140;SHT31;70624;51.978;5.656;2023-10-13T03:20:09;18.2;86.2
81140;SHT31;70624;51.978;5.656;2023-10-13T03:22:39;18.2;86.3
81140;SHT31;70624;51.978;5.656;2023-10-13T03:25:11;18.2;86.4
81140;SHT31;70624;51.978;5.656;2023-10-13T03:27:46;18.2;86.4
81140;SHT31;70624;51.978;5.656;2023-10-13T03:30:22;18.2;86.4
81140;SHT31;70624;51.978;5.656;2023-10-13T03:32:55;18.2;86.5
81140;SHT31;70624;51.978;5.656;2023-10-13T03:35:26;18.2;86.5
81140;SHT31;70624;51.978;5.656;2023-10-13T03:38:00;18.2;86.6
81140;SHT31;70624;51.978;5.656;2023-10-13T03:40:29;18.2;86.6
81140;SHT31;70624;51.978;5.656;2023-10-13T03:43:06;18.2;86.6
81140;SHT31;70624;51.978;5.656;2023-10-13T03:45:37;18.2;86.6
81140;SHT31;70624;51.978;5.656;2023-10-13T03:48:10;18.2;86.6
81140;SHT31;70624;51.978;5.656;2023-10-13T03:50:44;18.2;86.6
81140;SHT31;70624;51.978;5.656;2023-10-13T03:53:19;18.2;86.7
81140;SHT31;70624;51.978;5.656;2023-10-13T03:55:51;18.2;86.8
81140;SHT31;70624;51.978;5.656;2023-10-13T03:58:25;18.3;86.9
81140;SHT31;70624;51.978;5.656;2023-10-13T04:00:56;18.3;87.0
81140;SHT31;70624;51.978;5.656;2023-10-13T04:03:26;18.3;86.9
81140;SHT31;70624;51.978;5.656;2023-10-13T04:06:01;18.3;86.9
81140;SHT31;70624;51.978;5.656;2023-10-13T04:08:33;18.3;87.0
81140;SHT31;70624;51.978;5.656;2023-10-13T04:11:15;18.3;87.0
81140;SHT31;70624;51.978;5.656;2023-10-13T04:13:59;18.3;86.9
81140;SHT31;70624;51.978;5.656;2023-10-13T04:16:44;18.3;86.9
81140;SHT31;70624;51.978;5.656;2023-10-13T04:19:20;18.3;86.9
81140;SHT31;70624;51.978;5.656;2023-10-13T04:21:52;18.3;86.9
81140;SHT31;70624;51.978;5.656;2023-10-13T04:24:25;18.3;86.9
81140;SHT31;70624;51.978;5.656;2023-10-13T04:27:12;18.3;87.0
81140;SHT31;70624;51.978;5.656;2023-10-13T04:29:52;18.3;87.1
81140;SHT31;70624;51.978;5.656;2023-10-13T04:32:25;18.3;87.2
81140;SHT31;70624;51.978;5.656;2023-10-13T04:35:00;18.3;87.3
81140;SHT31;70624;51.978;5.656;2023-10-13T04:37:41;18.3;87.3
81140;SHT31;70624;51.978;5.656;2023-10-13T04:40:24;18.3;87.3
81140;SHT31;70624;51.978;5.656;2023-10-13T04:42:56;18.3;87.3
81140;SHT31;70624;51.978;5.656;2023-10-13T04:45:31;18.3;87.5
81140;SHT31;70624;51.978;5.656;2023-10-13T04:48:12;18.3;88.0
81140;SHT31;70624;51.978;5.656;2023-10-13T04:50:52;18.3;88.3
81140;SHT31;70624;51.978;5.656;2023-10-13T04:53:25;18.3;88.5
81140;SHT31;70624;51.978;5.656;2023-10-13T04:56:00;18.3;88.6
81140;SHT31;70624;51.978;5.656;2023-10-13T04:59:12;18.3;88.9
81140;SHT31;70624;51.978;5.656;2023-10-13T05:01:50;18.3;89.1
81140;SHT31;70624;51.978;5.656;2023-10-13T05:04:53;18.3;89.4
81140;SHT31;70624;51.978;5.656;2023-10-13T05:07:45;18.3;89.6
81140;SHT31;70624;51.978;5.656;2023-10-13T05:10:31;18.3;90.0
81140;SHT31;70624;51.978;5.656;2023-10-13T05:13:16;18.3;90.4
81140;SHT31;70624;51.978;5.656;2023-10-13T05:16:01;18.4;90.6
81140;SHT31;70624;51.978;5.656;2023-10-13T05:18:46;18.4;90.9
81140;SHT31;70624;51.978;5.656;2023-10-13T05:21:30;18.4;91.2
81140;SHT31;70624;51.978;5.656;2023-10-13T05:24:15;18.4;91.3
81140;SHT31;70624;51.978;5.656;2023-10-13T05:28:11;18.5;91.5
81140;SHT31;70624;51.978;5.656;2023-10-13T05:30:58;18.5;91.6
81140;SHT31;70624;51.978;5.656;2023-10-13T05:33:43;18.5;91.6
81140;SHT31;70624;51.978;5.656;2023-10-13T05:36:27;18.5;91.7
81140;SHT31;70624;51.978;5.656;2023-10-13T05:39:12;18.5;91.6
81140;SHT31;70624;51.978;5.656;2023-10-13T05:41:57;18.6;91.6
81140;SHT31;70624;51.978;5.656;2023-10-13T05:44:42;18.6;91.4
81140;SHT31;70624;51.978;5.656;2023-10-13T05:47:20;18.6;91.1
81140;SHT31;70624;51.978;5.656;2023-10-13T05:50:10;18.6;90.8
81140;SHT31;70624;51.978;5.656;2023-10-13T05:52:49;18.6;90.6
81140;SHT31;70624;51.978;5.656;2023-10-13T05:55:34;18.6;90.5
81140;SHT31;70624;51.978;5.656;2023-10-13T05:58:18;18.7;90.3
81140;SHT31;70624;51.978;5.656;2023-10-13T06:01:03;18.7;90.3
81140;SHT31;70624;51.978;5.656;2023-10-13T06:03:48;18.7;90.2
81140;SHT31;70624;51.978;5.656;2023-10-13T06:06:33;18.7;90.2
81140;SHT31;70624;51.978;5.656;2023-10-13T06:09:18;18.7;90.1
81140;SHT31;70624;51.978;5.656;2023-10-13T06:12:02;18.7;90.0
81140;SHT31;70624;51.978;5.656;2023-10-13T06:14:47;18.8;89.9
81140;SHT31;70624;51.978;5.656;2023-10-13T06:17:32;18.8;89.9
81140;SHT31;70624;51.978;5.656;2023-10-13T06:20:17;18.8;89.7
81140;SHT31;70624;51.978;5.656;2023-10-13T06:23:01;18.8;89.6
81140;SHT31;70624;51.978;5.656;2023-10-13T06:25:52;18.8;89.5
81140;SHT31;70624;51.978;5.656;2023-10-13T06:28:37;18.8;89.5
81140;SHT31;70624;51.978;5.656;2023-10-13T06:31:10;18.8;89.4
81140;SHT31;70624;51.978;5.656;2023-10-13T06:33:47;18.9;89.4
81140;SHT31;70624;51.978;5.656;2023-10-13T06:36:17;18.9;89.4
81140;SHT31;70624;51.978;5.656;2023-10-13T06:38:49;18.9;89.4
81140;SHT31;70624;51.978;5.656;2023-10-13T06:41:28;18.9;89.5
81140;SHT31;70624;51.978;5.656;2023-10-13T06:44:00;18.9;89.4
81140;SHT31;70624;51.978;5.656;2023-10-13T06:46:33;18.9;89.4
81140;SHT31;70624;51.978;5.656;2023-10-13T06:49:02;18.9;89.3
81140;SHT31;70624;51.978;5.656;2023-10-13T06:51:30;18.9;89.3
81140;SHT31;70624;51.978;5.656;2023-10-13T06:54:04;18.9;89.4
81140;SHT31;70624;51.978;5.656;2023-10-13T06:56:37;18.9;89.5
81140;SHT31;70624;51.978;5.656;2023-10-13T06:59:07;18.9;89.4
81140;SHT31;70624;51.978;5.656;2023-10-13T07:01:36;18.9;89.4
81140;SHT31;70624;51.978;5.656;2023-10-13T07:04:08;19.0;89.4
81140;SHT31;70624;51.978;5.656;2023-10-13T07:06:43;19.0;89.5
81140;SHT31;70624;51.978;5.656;2023-10-13T07:09:15;19.0;89.4
81140;SHT31;70624;51.978;5.656;2023-10-13T07:12:02;19.0;89.4
81140;SHT31;70624;51.978;5.656;2023-10-13T07:14:33;19.0;89.4
81140;SHT31;70624;51.978;5.656;2023-10-13T07:17:06;19.0;89.3
81140;SHT31;70624;51.978;5.656;2023-10-13T07:19:35;19.0;89.3
81140;SHT31;70624;51.978;5.656;2023-10-13T07:22:08;19.0;89.2
81140;SHT31;70624;51.978;5.656;2023-10-13T07:24:44;19.0;89.1
81140;SHT31;70624;51.978;5.656;2023-10-13T07:27:14;19.0;88.9
81140;SHT31;70624;51.978;5.656;2023-10-13T07:29:48;19.0;88.6
81140;SHT31;70624;51.978;5.656;2023-10-13T07:32:22;19.0;88.5
81140;SHT31;70624;51.978;5.656;2023-10-13T07:34:54;19.1;88.3
81140;SHT31;70624;51.978;5.656;2023-10-13T07:37:24;19.1;88.3
81140;SHT31;70624;51.978;5.656;2023-10-13T07:39:55;19.1;88.2
81140;SHT31;70624;51.978;5.656;2023-10-13T07:42:27;19.1;88.1
81140;SHT31;70624;51.978;5.656;2023-10-13T07:44:58;19.1;88.0
81140;SHT31;70624;51.978;5.656;2023-10-13T07:47:30;19.1;87.9
81140;SHT31;70624;51.978;5.656;2023-10-13T07:50:00;19.1;87.9
81140;SHT31;70624;51.978;5.656;2023-10-13T07:52:34;19.2;87.9
81140;SHT31;70624;51.978;5.656;2023-10-13T07:55:11;19.2;87.9
81140;SHT31;70624;51.978;5.656;2023-10-13T07:57:44;19.2;87.9
81140;SHT31;70624;51.978;5.656;2023-10-13T08:00:23;19.2;87.9
81140;SHT31;70624;51.978;5.656;2023-10-13T08:03:00;19.3;87.8
81140;SHT31;70624;51.978;5.656;2023-10-13T08:05:42;19.3;87.7
81140;SHT31;70624;51.978;5.656;2023-10-13T08:08:15;19.3;87.6
81140;SHT31;70624;51.978;5.656;2023-10-13T08:10:45;19.3;87.5
81140;SHT31;70624;51.978;5.656;2023-10-13T08:13:13;19.4;87.3
81140;SHT31;70624;51.978;5.656;2023-10-13T08:15:44;19.4;87.4
81140;SHT31;70624;51.978;5.656;2023-10-13T08:18:15;19.4;87.4
81140;SHT31;70624;51.978;5.656;2023-10-13T08:20:50;19.5;87.4
81140;SHT31;70624;51.978;5.656;2023-10-13T08:23:20;19.5;87.3
81140;SHT31;70624;51.978;5.656;2023-10-13T08:25:55;19.5;87.1
81140;SHT31;70624;51.978;5.656;2023-10-13T08:30:30;19.6;87.0
81140;SHT31;70624;51.978;5.656;2023-10-13T08:33:04;19.6;86.9
81140;SHT31;70624;51.978;5.656;2023-10-13T08:35:37;19.7;86.6
81140;SHT31;70624;51.978;5.656;2023-10-13T08:38:13;19.7;86.5
81140;SHT31;70624;51.978;5.656;2023-10-13T08:40:44;19.8;86.3
81140;SHT31;70624;51.978;5.656;2023-10-13T08:44:03;19.9;86.1
81140;SHT31;70624;51.978;5.656;2023-10-13T08:46:38;19.9;85.3
81140;SHT31;70624;51.978;5.656;2023-10-13T08:49:33;20.0;84.9
81140;SHT31;70624;51.978;5.656;2023-10-13T08:52:10;20.0;84.6
81140;SHT31;70624;51.978;5.656;2023-10-13T08:55:12;20.1;83.7
81140;SHT31;70624;51.978;5.656;2023-10-13T08:57:59;20.1;83.2
81140;SHT31;70624;51.978;5.656;2023-10-13T09:00:34;20.1;82.8
81140;SHT31;70624;51.978;5.656;2023-10-13T09:03:30;20.2;82.5
81140;SHT31;70624;51.978;5.656;2023-10-13T09:06:05;20.2;81.6
81140;SHT31;70624;51.978;5.656;2023-10-13T09:08:34;20.2;81.6
81140;SHT31;70624;51.978;5.656;2023-10-13T09:11:08;20.3;81.7
81140;SHT31;70624;51.978;5.656;2023-10-13T09:13:40;20.3;81.8
81140;SHT31;70624;51.978;5.656;2023-10-13T09:16:15;20.3;81.6
81140;SHT31;70624;51.978;5.656;2023-10-13T09:18:49;20.4;81.4
81140;SHT31;70624;51.978;5.656;2023-10-13T09:21:18;20.4;81.4
81140;SHT31;70624;51.978;5.656;2023-10-13T09:24:14;20.4;80.8
81140;SHT31;70624;51.978;5.656;2023-10-13T09:26:53;20.5;80.6
81140;SHT31;70624;51.978;5.656;2023-10-13T09:29:22;20.5;79.9
81140;SHT31;70624;51.978;5.656;2023-10-13T09:32:00;20.5;80.4
81140;SHT31;70624;51.978;5.656;2023-10-13T09:34:30;20.5;79.4
81140;SHT31;70624;51.978;5.656;2023-10-13T09:37:00;20.5;79.2
81140;SHT31;70624;51.978;5.656;2023-10-13T09:39:32;20.5;79.7
81140;SHT31;70624;51.978;5.656;2023-10-13T09:42:14;20.5;78.9
81140;SHT31;70624;51.978;5.656;2023-10-13T09:44:45;20.5;79.3
81140;SHT31;70624;51.978;5.656;2023-10-13T09:47:23;20.6;79.0
81140;SHT31;70624;51.978;5.656;2023-10-13T09:50:07;20.6;79.2
81140;SHT31;70624;51.978;5.656;2023-10-13T09:52:43;20.6;78.6
81140;SHT31;70624;51.978;5.656;2023-10-13T09:55:19;20.7;77.3
81140;SHT31;70624;51.978;5.656;2023-10-13T09:57:54;20.7;78.5
81140;SHT31;70624;51.978;5.656;2023-10-13T10:00:29;20.8;77.8
81140;SHT31;70624;51.978;5.656;2023-10-13T10:04:14;20.8;77.2
81140;SHT31;70624;51.978;5.656;2023-10-13T10:06:53;20.8;76.4
81140;SHT31;70624;51.978;5.656;2023-10-13T10:09:29;20.9;76.4
81140;SHT31;70624;51.978;5.656;2023-10-13T10:12:17;20.9;76.0
81140;SHT31;70624;51.978;5.656;2023-10-13T10:15:11;20.9;76.1
81140;SHT31;70624;51.978;5.656;2023-10-13T10:17:47;20.9;75.9
81140;SHT31;70624;51.978;5.656;2023-10-13T10:20:29;20.9;76.4
81140;SHT31;70624;51.978;5.656;2023-10-13T10:23:08;20.9;76.1
81140;SHT31;70624;51.978;5.656;2023-10-13T10:25:43;21.0;75.8
81140;SHT31;70624;51.978;5.656;2023-10-13T10:28:12;21.0;75.7
81140;SHT31;70624;51.978;5.656;2023-10-13T10:30:44;21.0;74.7
81140;SHT31;70624;51.978;5.656;2023-10-13T10:33:14;21.0;74.6
81140;SHT31;70624;51.978;5.656;2023-10-13T10:35:46;21.0;74.6
81140;SHT31;70624;51.978;5.656;2023-10-13T10:38:16;21.0;74.7
81140;SHT31;70624;51.978;5.656;2023-10-13T10:40:58;21.1;75.2
81140;SHT31;70624;51.978;5.656;2023-10-13T10:43:29;21.1;76.9
81140;SHT31;70624;51.978;5.656;2023-10-13T10:46:03;21.2;76.1
81140;SHT31;70624;51.978;5.656;2023-10-13T10:48:33;21.2;73.5
81140;SHT31;70624;51.978;5.656;2023-10-13T10:51:05;21.3;74.2
81140;SHT31;70624;51.978;5.656;2023-10-13T10:53:41;21.4;73.7
81140;SHT31;70624;51.978;5.656;2023-10-13T10:56:14;21.5;73.0
81140;SHT31;70624;51.978;5.656;2023-10-13T10:58:50;21.5;72.9
81140;SHT31;70624;51.978;5.656;2023-10-13T11:01:25;21.6;72.5
81140;SHT31;70624;51.978;5.656;2023-10-13T11:04:00;21.6;72.7
81140;SHT31;70624;51.978;5.656;2023-10-13T11:06:35;21.7;72.0
81140;SHT31;70624;51.978;5.656;2023-10-13T11:09:08;21.7;71.7
81140;SHT31;70624;51.978;5.656;2023-10-13T11:11:52;21.8;71.9
81140;SHT31;70624;51.978;5.656;2023-10-13T11:14:25;21.8;71.2
81140;SHT31;70624;51.978;5.656;2023-10-13T11:16:56;21.8;70.2
81140;SHT31;70624;51.978;5.656;2023-10-13T11:19:38;21.9;69.7
81140;SHT31;70624;51.978;5.656;2023-10-13T11:22:13;21.9;69.4
81140;SHT31;70624;51.978;5.656;2023-10-13T11:24:59;21.9;70.1
81140;SHT31;70624;51.978;5.656;2023-10-13T11:27:34;21.9;68.7
81140;SHT31;70624;51.978;5.656;2023-10-13T11:30:47;22.0;67.8
81140;SHT31;70624;51.978;5.656;2023-10-13T11:33:18;22.0;67.9
81140;SHT31;70624;51.978;5.656;2023-10-13T11:35:50;22.0;67.2
81140;SHT31;70624;51.978;5.656;2023-10-13T11:38:32;22.0;66.9
81140;SHT31;70624;51.978;5.656;2023-10-13T11:41:11;22.0;68.3
81140;SHT31;70624;51.978;5.656;2023-10-13T11:43:43;22.0;67.4
81140;SHT31;70624;51.978;5.656;2023-10-13T11:46:27;22.0;67.3
81140;SHT31;70624;51.978;5.656;2023-10-13T11:50:54;22.0;66.7
81140;SHT31;70624;51.978;5.656;2023-10-13T11:53:22;22.0;65.6
81140;SHT31;70624;51.978;5.656;2023-10-13T11:55:55;22.0;66.1
81140;SHT31;70624;51.978;5.656;2023-10-13T11:58:23;22.0;67.9
81140;SHT31;70624;51.978;5.656;2023-10-13T12:00:51;22.0;66.6
81140;SHT31;70624;51.978;5.656;2023-10-13T12:03:26;22.0;66.8
81140;SHT31;70624;51.978;5.656;2023-10-13T12:06:14;22.1;66.7
81140;SHT31;70624;51.978;5.656;2023-10-13T12:08:55;22.1;67.8
81140;SHT31;70624;51.978;5.656;2023-10-13T12:11:32;22.1;67.2
81140;SHT31;70624;51.978;5.656;2023-10-13T12:14:05;22.2;67.2
81140;SHT31;70624;51.978;5.656;2023-10-13T12:16:44;22.2;67.8
81140;SHT31;70624;51.978;5.656;2023-10-13T12:19:18;22.3;67.5
81140;SHT31;70624;51.978;5.656;2023-10-13T12:21:50;22.3;67.2
81140;SHT31;70624;51.978;5.656;2023-10-13T12:24:21;22.4;67.0
81140;SHT31;70624;51.978;5.656;2023-10-13T12:26:55;22.4;67.6
81140;SHT31;70624;51.978;5.656;2023-10-13T12:29:25;22.4;67.1
81140;SHT31;70624;51.978;5.656;2023-10-13T12:31:56;22.4;66.7
81140;SHT31;70624;51.978;5.656;2023-10-13T12:34:34;22.5;66.6
81140;SHT31;70624;51.978;5.656;2023-10-13T12:37:19;22.5;66.2
81140;SHT31;70624;51.978;5.656;2023-10-13T12:39:58;22.5;66.4
81140;SHT31;70624;51.978;5.656;2023-10-13T12:44:42;22.6;66.1
81140;SHT31;70624;51.978;5.656;2023-10-13T12:47:27;22.6;66.9
81140;SHT31;70624;51.978;5.656;2023-10-13T12:50:14;22.6;65.8
81140;SHT31;70624;51.978;5.656;2023-10-13T12:52:47;22.7;65.6
81140;SHT31;70624;51.978;5.656;2023-10-13T12:55:15;22.7;65.3
81140;SHT31;70624;51.978;5.656;2023-10-13T12:57:47;22.7;65.0
81140;SHT31;70624;51.978;5.656;2023-10-13T13:00:16;22.7;64.8
81140;SHT31;70624;51.978;5.656;2023-10-13T13:02:47;22.7;64.4
81140;SHT31;70624;51.978;5.656;2023-10-13T13:05:19;22.8;64.3
81140;SHT31;70624;51.978;5.656;2023-10-13T13:07:49;22.8;64.5
81140;SHT31;70624;51.978;5.656;2023-10-13T13:10:20;22.8;64.4
81140;SHT31;70624;51.978;5.656;2023-10-13T13:12:57;22.7;64.0
81140;SHT31;70624;51.978;5.656;2023-10-13T13:15:26;22.7;63.7
81140;SHT31;70624;51.978;5.656;2023-10-13T13:17:56;22.7;63.7
81140;SHT31;70624;51.978;5.656;2023-10-13T13:20:24;22.7;63.6
81140;SHT31;70624;51.978;5.656;2023-10-13T13:22:57;22.7;63.4
81140;SHT31;70624;51.978;5.656;2023-10-13T13:25:29;22.7;64.0
81140;SHT31;70624;51.978;5.656;2023-10-13T13:28:01;22.6;64.0
81140;SHT31;70624;51.978;5.656;2023-10-13T13:30:32;22.6;63.9
81140;SHT31;70624;51.978;5.656;2023-10-13T13:33:04;22.6;64.8
81140;SHT31;70624;51.978;5.656;2023-10-13T13:35:37;22.5;66.3
81140;SHT31;70624;51.978;5.656;2023-10-13T13:38:11;22.5;67.1
81140;SHT31;70624;51.978;5.656;2023-10-13T13:40:45;22.3;69.0
81140;SHT31;70624;51.978;5.656;2023-10-13T13:43:15;22.2;68.2
81140;SHT31;70624;51.978;5.656;2023-10-13T13:45:51;22.0;70.4
81140;SHT31;70624;51.978;5.656;2023-10-13T13:48:23;21.8;70.8
81140;SHT31;70624;51.978;5.656;2023-10-13T13:50:53;21.6;71.0
81140;SHT31;70624;51.978;5.656;2023-10-13T13:53:27;21.5;72.0
81140;SHT31;70624;51.978;5.656;2023-10-13T13:55:59;21.3;71.6
81140;SHT31;70624;51.978;5.656;2023-10-13T13:58:28;21.2;72.0
81140;SHT31;70624;51.978;5.656;2023-10-13T14:01:01;21.1;73.4
81140;SHT31;70624;51.978;5.656;2023-10-13T14:03:36;21.0;73.9
81140;SHT31;70624;51.978;5.656;2023-10-13T14:06:10;20.8;74.8
81140;SHT31;70624;51.978;5.656;2023-10-13T14:08:43;20.8;75.7
81140;SHT31;70624;51.978;5.656;2023-10-13T14:11:14;20.7;75.4
81140;SHT31;70624;51.978;5.656;2023-10-13T14:13:55;20.6;76.3
81140;SHT31;70624;51.978;5.656;2023-10-13T14:16:23;20.5;76.4
81140;SHT31;70624;51.978;5.656;2023-10-13T14:18:52;20.4;76.7
81140;SHT31;70624;51.978;5.656;2023-10-13T14:21:21;20.4;76.6
81140;SHT31;70624;51.978;5.656;2023-10-13T14:23:51;20.3;77.8
81140;SHT31;70624;51.978;5.656;2023-10-13T14:26:21;20.2;78.0
81140;SHT31;70624;51.978;5.656;2023-10-13T14:28:52;20.2;78.3
81140;SHT31;70624;51.978;5.656;2023-10-13T14:31:31;20.1;79.0
81140;SHT31;70624;51.978;5.656;2023-10-13T14:33:59;20.1;79.2
81140;SHT31;70624;51.978;5.656;2023-10-13T14:36:30;20.0;80.4
81140;SHT31;70624;51.978;5.656;2023-10-13T14:39:01;19.9;80.3
81140;SHT31;70624;51.978;5.656;2023-10-13T14:41:30;19.9;80.5
81140;SHT31;70624;51.978;5.656;2023-10-13T14:43:58;19.9;80.7
81140;SHT31;70624;51.978;5.656;2023-10-13T14:46:31;19.8;80.9
81140;SHT31;70624;51.978;5.656;2023-10-13T14:49:04;19.8;80.8
81140;SHT31;70624;51.978;5.656;2023-10-13T14:51:33;19.7;82.2
81140;SHT31;70624;51.978;5.656;2023-10-13T14:54:06;19.7;82.1
81140;SHT31;70624;51.978;5.656;2023-10-13T14:56:34;19.7;82.4
81140;SHT31;70624;51.978;5.656;2023-10-13T14:59:03;19.6;82.8
81140;SHT31;70624;51.978;5.656;2023-10-13T15:01:32;19.6;83.0
81140;SHT31;70624;51.978;5.656;2023-10-13T15:04:01;19.6;83.1
81140;SHT31;70624;51.978;5.656;2023-10-13T15:06:31;19.6;82.9
81140;SHT31;70624;51.978;5.656;2023-10-13T15:09:00;19.6;82.8
81140;SHT31;70624;51.978;5.656;2023-10-13T15:11:37;19.6;83.0
81140;SHT31;70624;51.978;5.656;2023-10-13T15:14:06;19.6;82.7
81140;SHT31;70624;51.978;5.656;2023-10-13T15:16:35;19.6;82.7
81140;SHT31;70624;51.978;5.656;2023-10-13T15:19:03;19.6;82.8
81140;SHT31;70624;51.978;5.656;2023-10-13T15:21:33;19.5;83.0
81140;SHT31;70624;51.978;5.656;2023-10-13T15:24:03;19.5;82.5
81140;SHT31;70624;51.978;5.656;2023-10-13T15:26:39;19.5;83.2
81140;SHT31;70624;51.978;5.656;2023-10-13T15:29:11;19.5;83.5
81140;SHT31;70624;51.978;5.656;2023-10-13T15:31:43;19.4;82.9
81140;SHT31;70624;51.978;5.656;2023-10-13T15:34:18;19.4;83.2
81140;SHT31;70624;51.978;5.656;2023-10-13T15:36:51;19.4;83.4
81140;SHT31;70624;51.978;5.656;2023-10-13T15:39:22;19.4;83.3
81140;SHT31;70624;51.978;5.656;2023-10-13T15:41:55;19.4;84.1
81140;SHT31;70624;51.978;5.656;2023-10-13T15:44:26;19.3;84.2
81140;SHT31;70624;51.978;5.656;2023-10-13T15:46:57;19.3;83.7
81140;SHT31;70624;51.978;5.656;2023-10-13T15:49:26;19.3;84.6
81140;SHT31;70624;51.978;5.656;2023-10-13T15:51:55;19.3;84.1
81140;SHT31;70624;51.978;5.656;2023-10-13T15:54:24;19.3;84.4
81140;SHT31;70624;51.978;5.656;2023-10-13T15:56:52;19.3;84.3
81140;SHT31;70624;51.978;5.656;2023-10-13T15:59:21;19.4;83.3
81140;SHT31;70624;51.978;5.656;2023-10-13T16:01:50;19.4;84.3
81140;SHT31;70624;51.978;5.656;2023-10-13T16:04:24;19.4;84.0
81140;SHT31;70624;51.978;5.656;2023-10-13T16:06:52;19.4;84.4
81140;SHT31;70624;51.978;5.656;2023-10-13T16:09:22;19.4;83.7
81140;SHT31;70624;51.978;5.656;2023-10-13T16:11:52;19.4;83.4
81140;SHT31;70624;51.978;5.656;2023-10-13T16:14:23;19.4;83.3
81140;SHT31;70624;51.978;5.656;2023-10-13T16:16:51;19.4;82.3
81140;SHT31;70624;51.978;5.656;2023-10-13T16:19:21;19.4;82.5
81140;SHT31;70624;51.978;5.656;2023-10-13T16:21:51;19.4;82.1
81140;SHT31;70624;51.978;5.656;2023-10-13T16:24:20;19.4;81.7
81140;SHT31;70624;51.978;5.656;2023-10-13T16:26:51;19.4;81.9
81140;SHT31;70624;51.978;5.656;2023-10-13T16:29:22;19.4;81.7
81140;SHT31;70624;51.978;5.656;2023-10-13T16:31:50;19.4;81.8
81140;SHT31;70624;51.978;5.656;2023-10-13T16:34:19;19.4;80.7
81140;SHT31;70624;51.978;5.656;2023-10-13T16:36:48;19.5;80.6
81140;SHT31;70624;51.978;5.656;2023-10-13T16:39:20;19.5;79.6
81140;SHT31;70624;51.978;5.656;2023-10-13T16:41:49;19.5;79.6
81140;SHT31;70624;51.978;5.656;2023-10-13T16:44:18;19.5;79.1
81140;SHT31;70624;51.978;5.656;2023-10-13T16:46:46;19.6;79.3
81140;SHT31;70624;51.978;5.656;2023-10-13T16:49:17;19.6;78.7
81140;SHT31;70624;51.978;5.656;2023-10-13T16:51:46;19.7;78.9
81140;SHT31;70624;51.978;5.656;2023-10-13T16:54:14;19.7;78.9
81140;SHT31;70624;51.978;5.656;2023-10-13T16:56:42;19.8;78.7